Super Express — WAB6372 — position and weather

sailwx.info

Track history (hours):
 
Tides and Currents Weather Stations Pressure Air Temp Water Temp Dewpoint Dewpoint Depression Visibility Wind Speed Wind Dir Waves Ship Positions

Super Express

Owner: CATALINA CHANNEL EXPRESS, Long Beach, CA. More information available from US FCC via Universal Licensing System and Coast Guard Vessel Documentation Center.

Last reported at 2018-May-20 13:30 UTC. Time now 2018-May-20 13:34 UTC.
Position N 33°45' W 118°16'.

Length 45 m; draft 1 m.

Type: High speed craft. MMSI: 366943940.

Date/timePositionNaut miles runAvg speedWind from/ knotsBaromVisibWave heightAir tempDewpointWater temp
2018-May-20 13:30N 33°45' W 118°16'0 0.0
2018-May-19 23:38N 33°45' W 118°16'0 2.2
2018-May-19 23:30N 33°45' W 118°16'3 5.8
2018-May-19 23:01N 33°45' W 118°13'1 0.1
2018-May-19 16:44N 33°46' W 118°13'1 2.6
2018-May-19 16:30N 33°45' W 118°13'3 6.1
2018-May-19 16:00N 33°43' W 118°15'3 5.2
2018-May-19 15:30N 33°45' W 118°16'0 0.1
2018-May-19 15:00N 33°45' W 118°16'0 0.0
2018-May-19 14:30N 33°45' W 118°16'0 0.1
2018-May-19 14:00N 33°45' W 118°16'0 0.0
2018-May-19 13:30N 33°45' W 118°16'0 0.1
2018-May-19 13:00N 33°45' W 118°16'0 0.0
2018-May-19 12:30N 33°45' W 118°16'0 0.0
2018-May-19 07:17N 33°45' W 118°16'0 0.2
2018-May-19 07:00N 33°45' W 118°16'0 0.2
2018-May-19 06:30N 33°45' W 118°16'0 0.1
2018-May-19 06:00N 33°45' W 118°16'713.4
2018-May-19 05:30N 33°38' W 118°15'4 1.4
2018-May-19 02:50N 33°38' W 118°20'619.0
2018-May-19 02:31N 33°43' W 118°16'2 3.0
2018-May-19 02:00N 33°45' W 118°16'1 2.7
2018-May-19 01:30N 33°44' W 118°16'6 2.5
2018-May-18 23:07N 33°38' W 118°16'324.7
2018-May-18 23:00N 33°40' W 118°16'510.0
2018-May-18 22:30N 33°45' W 118°16'0 0.0
2018-May-18 22:00N 33°45' W 118°16'0 0.0
2018-May-18 21:30N 33°45' W 118°16'0 0.0
2018-May-18 21:00N 33°45' W 118°16'0 0.0
2018-May-18 20:30N 33°45' W 118°16'611.8
2018-May-18 20:00N 33°39' W 118°18'0 0.1
2018-May-18 17:29N 33°39' W 118°18'611.9
2018-May-18 17:00N 33°45' W 118°16'0 0.1
2018-May-18 16:30N 33°45' W 118°16'0 0.0
2018-May-18 16:00N 33°45' W 118°16'0 0.0
2018-May-18 15:30N 33°45' W 118°16'0 0.0
2018-May-18 15:00N 33°45' W 118°16'0 0.0
2018-May-18 14:30N 33°45' W 118°16'0 0.0
2018-May-18 14:00N 33°45' W 118°16'0 0.0
2018-May-18 13:30N 33°45' W 118°16'0 0.0
2018-May-18 13:00N 33°45' W 118°16'0 0.0
2018-May-18 12:30N 33°45' W 118°16'0 0.0
2018-May-18 03:31N 33°45' W 118°16'0 0.6
2018-May-18 03:30N 33°45' W 118°16'0 0.0
2018-May-18 03:00N 33°45' W 118°16'0 0.0
2018-May-18 02:30N 33°45' W 118°16'0 0.0
2018-May-18 02:00N 33°45' W 118°16'2 4.0
2018-May-18 01:31N 33°43' W 118°16'6 1.9
2018-May-17 22:33N 33°38' W 118°19'124.8
2018-May-17 22:30N 33°39' W 118°18'611.7
2018-May-17 22:00N 33°45' W 118°17'0 0.7
2018-May-17 21:30N 33°45' W 118°16'0 0.0
2018-May-17 21:00N 33°45' W 118°16'0 0.0
2018-May-17 20:30N 33°45' W 118°16'0 0.0
2018-May-17 20:00N 33°45' W 118°16'0 0.0
2018-May-17 19:30N 33°45' W 118°16'510.0
2018-May-17 19:01N 33°40' W 118°17'4 1.4
2018-May-17 16:26N 33°36' W 118°16'716.6
2018-May-17 16:01N 33°43' W 118°16'1 2.9
2018-May-17 15:30N 33°45' W 118°16'0 0.0
2018-May-17 15:00N 33°45' W 118°16'0 0.0
2018-May-17 14:31N 33°45' W 118°16'0 0.0
2018-May-17 14:00N 33°45' W 118°16'0 0.0
2018-May-17 13:30N 33°45' W 118°16'0 0.0
2018-May-17 13:00N 33°45' W 118°16'0 0.0
2018-May-16 21:05N 33°45' W 118°16'0 0.0
2018-May-16 21:01N 33°45' W 118°16'0 0.1
2018-May-16 20:30N 33°45' W 118°16'2 3.4
2018-May-16 20:00N 33°43' W 118°16'4 1.4
2018-May-16 17:30N 33°40' W 118°17'510.6
2018-May-16 17:00N 33°45' W 118°16'0 0.0
2018-May-16 16:30N 33°45' W 118°16'0 0.0
2018-May-16 16:00N 33°45' W 118°16'0 0.0
2018-May-16 15:30N 33°45' W 118°16'0 0.0
2018-May-16 15:01N 33°45' W 118°16'0 0.0
2018-May-16 14:30N 33°45' W 118°16'0 0.0
2018-May-16 14:00N 33°45' W 118°16'0 0.0
2018-May-16 13:31N 33°45' W 118°16'0 0.0
2018-May-16 13:00N 33°45' W 118°16'0 0.0
2018-May-16 03:01N 33°45' W 118°16'0 0.0
2018-May-16 02:59N 33°45' W 118°16'0 0.0
2018-May-16 02:30N 33°45' W 118°16'0 0.0
2018-May-16 02:00N 33°45' W 118°16'2 3.5
2018-May-16 01:31N 33°43' W 118°16'4 1.3
2018-May-15 22:25N 33°40' W 118°18'512.7
2018-May-15 22:00N 33°45' W 118°17'0 0.8
2018-May-15 21:30N 33°45' W 118°16'0 0.0
2018-May-15 21:00N 33°45' W 118°16'0 0.0
2018-May-15 20:30N 33°45' W 118°16'0 0.0
2018-May-15 20:00N 33°45' W 118°16'0 0.0
2018-May-15 19:30N 33°45' W 118°16'5 9.3
2018-May-15 19:00N 33°40' W 118°17'4 1.6
2018-May-15 16:22N 33°36' W 118°16'720.2
2018-May-15 16:01N 33°43' W 118°16'2 3.1
2018-May-15 15:31N 33°45' W 118°16'0 0.1
2018-May-15 15:00N 33°45' W 118°16'0 0.1
2018-May-15 14:31N 33°45' W 118°16'0 0.0
2018-May-15 14:01N 33°45' W 118°16'0 0.0
2018-May-15 13:30N 33°45' W 118°16'0 0.0
2018-May-15 13:01N 33°45' W 118°16'0 0.0
2018-May-14 23:11N 33°45' W 118°16'1 6.8
2018-May-14 23:01N 33°44' W 118°16'7 3.4
2018-May-14 21:06N 33°37' W 118°16'224.8
2018-May-14 21:00N 33°39' W 118°16'6 1.2
2018-May-14 16:22N 33°45' W 118°16'0 0.2
2018-May-14 16:00N 33°45' W 118°16'0 0.0
2018-May-14 15:00N 33°45' W 118°16'0 0.0
2018-May-14 14:30N 33°45' W 118°16'0 0.1
2018-May-14 14:00N 33°45' W 118°16'0 0.1
2018-May-14 13:30N 33°45' W 118°16'0 0.0
2018-May-14 03:46N 33°45' W 118°16'0 0.0
2018-May-14 03:30N 33°45' W 118°16'0 0.2
2018-May-14 03:00N 33°45' W 118°16'0 0.0
2018-May-14 02:30N 33°45' W 118°16'1 2.5
2018-May-14 02:00N 33°44' W 118°16'6 3.3
2018-May-14 00:07N 33°38' W 118°19'325.9
2018-May-14 00:00N 33°40' W 118°17'5 9.8
2018-May-13 23:30N 33°45' W 118°16'0 0.0
2018-May-13 23:00N 33°45' W 118°16'1 2.5
2018-May-13 22:30N 33°44' W 118°16'7 2.7
2018-May-13 20:01N 33°37' W 118°19'126.1
2018-May-13 19:58N 33°38' W 118°18'714.0
2018-May-13 19:30N 33°45' W 118°17'0 0.3
2018-May-13 19:00N 33°45' W 118°16'0 0.2
2018-May-13 18:30N 33°45' W 118°16'0 0.1
2018-May-13 18:00N 33°45' W 118°16'0 0.1
2018-May-13 17:30N 33°45' W 118°16'0 0.1
2018-May-13 17:00N 33°45' W 118°16'0 0.1
2018-May-13 16:30N 33°45' W 118°16'0 0.1
2018-May-13 16:00N 33°45' W 118°16'0 0.0
2018-May-13 15:30N 33°45' W 118°16'0 0.1
2018-May-13 15:00N 33°45' W 118°16'0 0.0
2018-May-13 14:30N 33°45' W 118°16'0 0.1
2018-May-13 14:01N 33°45' W 118°16'0 0.0
2018-May-13 13:30N 33°45' W 118°16'0 0.0
2018-May-12 20:53N 33°45' W 118°16'0 0.0
2018-May-12 20:30N 33°45' W 118°16'0 0.2
2018-May-12 20:00N 33°45' W 118°16'0 0.2
2018-May-12 19:30N 33°45' W 118°16'713.9
2018-May-12 19:00N 33°38' W 118°15'3 1.7
2018-May-12 17:08N 33°35' W 118°17'324.7
2018-May-12 17:01N 33°38' W 118°16'713.1
2018-May-12 16:29N 33°45' W 118°16'0 0.0
2018-May-12 16:00N 33°45' W 118°16'0 0.2
2018-May-12 15:30N 33°45' W 118°16'0 0.1
2018-May-12 15:00N 33°45' W 118°16'0 0.0
2018-May-12 14:30N 33°45' W 118°16'0 0.0
2018-May-12 14:00N 33°45' W 118°16'0 0.0
2018-May-12 07:39N 33°45' W 118°16'0 0.4
2018-May-12 07:31N 33°45' W 118°16'0 0.2
2018-May-12 07:00N 33°45' W 118°16'0 0.0
2018-May-12 06:31N 33°45' W 118°16'3 5.4
2018-May-12 06:00N 33°43' W 118°15'3 0.8
2018-May-12 02:51N 33°40' W 118°16'411.6
2018-May-12 02:30N 33°44' W 118°17'1 1.8
2018-May-12 02:00N 33°45' W 118°16'2 4.7
2018-May-12 01:31N 33°43' W 118°15'8 3.4
2018-May-11 23:14N 33°35' W 118°16'624.4
2018-May-11 23:01N 33°41' W 118°15'4 8.6
2018-May-11 22:30N 33°45' W 118°16'0 0.0
2018-May-11 22:00N 33°45' W 118°16'0 0.0
2018-May-11 21:30N 33°45' W 118°16'0 0.0
2018-May-11 21:01N 33°45' W 118°16'0 0.0
2018-May-11 20:31N 33°45' W 118°16'5 9.2
2018-May-11 20:01N 33°40' W 118°17'4 1.6
2018-May-11 17:35N 33°37' W 118°20'225.6
2018-May-11 17:30N 33°39' W 118°18'612.8
2018-May-11 17:00N 33°45' W 118°16'0 0.0
2018-May-11 16:30N 33°45' W 118°16'0 0.2
2018-May-11 16:00N 33°45' W 118°16'0 0.1
2018-May-11 15:30N 33°45' W 118°16'0 0.0
2018-May-11 15:00N 33°45' W 118°16'0 0.1
2018-May-11 14:30N 33°45' W 118°16'0 0.1
2018-May-11 14:00N 33°45' W 118°16'0 0.1
2018-May-11 13:30N 33°45' W 118°16'0 0.1
2018-May-11 13:00N 33°45' W 118°16'0 0.1
2018-May-11 12:30N 33°45' W 118°16'  
Track history (hours):
 
Tides and Currents Weather Stations Pressure Air Temp Water Temp Dewpoint Dewpoint Depression Visibility Wind Speed Wind Dir Waves Ship Positions

Super Express

Owner: CATALINA CHANNEL EXPRESS, Long Beach, CA. More information available from US FCC via Universal Licensing System and Coast Guard Vessel Documentation Center.

Last reported at 2018-May-20 13:30 UTC. Time now 2018-May-20 13:34 UTC.
Position N 33°45' W 118°16'.

Length 45 m; draft 1 m.

Type: High speed craft. MMSI: 366943940.

Date/timePositionNaut miles runAvg speedWind from/ knotsBaromVisibWave heightAir tempDewpointWater temp
2018-May-20 13:30N 33°45' W 118°16'0 0.0
2018-May-19 23:38N 33°45' W 118°16'0 2.2
2018-May-19 23:30N 33°45' W 118°16'3 5.8
2018-May-19 23:01N 33°45' W 118°13'1 0.1
2018-May-19 16:44N 33°46' W 118°13'1 2.6
2018-May-19 16:30N 33°45' W 118°13'3 6.1
2018-May-19 16:00N 33°43' W 118°15'3 5.2
2018-May-19 15:30N 33°45' W 118°16'0 0.1
2018-May-19 15:00N 33°45' W 118°16'0 0.0
2018-May-19 14:30N 33°45' W 118°16'0 0.1
2018-May-19 14:00N 33°45' W 118°16'0 0.0
2018-May-19 13:30N 33°45' W 118°16'0 0.1
2018-May-19 13:00N 33°45' W 118°16'0 0.0
2018-May-19 12:30N 33°45' W 118°16'0 0.0
2018-May-19 07:17N 33°45' W 118°16'0 0.2
2018-May-19 07:00N 33°45' W 118°16'0 0.2
2018-May-19 06:30N 33°45' W 118°16'0 0.1
2018-May-19 06:00N 33°45' W 118°16'713.4
2018-May-19 05:30N 33°38' W 118°15'4 1.4
2018-May-19 02:50N 33°38' W 118°20'619.0
2018-May-19 02:31N 33°43' W 118°16'2 3.0
2018-May-19 02:00N 33°45' W 118°16'1 2.7
2018-May-19 01:30N 33°44' W 118°16'6 2.5
2018-May-18 23:07N 33°38' W 118°16'324.7
2018-May-18 23:00N 33°40' W 118°16'510.0
2018-May-18 22:30N 33°45' W 118°16'0 0.0
2018-May-18 22:00N 33°45' W 118°16'0 0.0
2018-May-18 21:30N 33°45' W 118°16'0 0.0
2018-May-18 21:00N 33°45' W 118°16'0 0.0
2018-May-18 20:30N 33°45' W 118°16'611.8
2018-May-18 20:00N 33°39' W 118°18'0 0.1
2018-May-18 17:29N 33°39' W 118°18'611.9
2018-May-18 17:00N 33°45' W 118°16'0 0.1
2018-May-18 16:30N 33°45' W 118°16'0 0.0
2018-May-18 16:00N 33°45' W 118°16'0 0.0
2018-May-18 15:30N 33°45' W 118°16'0 0.0
2018-May-18 15:00N 33°45' W 118°16'0 0.0
2018-May-18 14:30N 33°45' W 118°16'0 0.0
2018-May-18 14:00N 33°45' W 118°16'0 0.0
2018-May-18 13:30N 33°45' W 118°16'0 0.0
2018-May-18 13:00N 33°45' W 118°16'0 0.0
2018-May-18 12:30N 33°45' W 118°16'0 0.0
2018-May-18 03:31N 33°45' W 118°16'0 0.6
2018-May-18 03:30N 33°45' W 118°16'0 0.0
2018-May-18 03:00N 33°45' W 118°16'0 0.0
2018-May-18 02:30N 33°45' W 118°16'0 0.0
2018-May-18 02:00N 33°45' W 118°16'2 4.0
2018-May-18 01:31N 33°43' W 118°16'6 1.9
2018-May-17 22:33N 33°38' W 118°19'124.8
2018-May-17 22:30N 33°39' W 118°18'611.7
2018-May-17 22:00N 33°45' W 118°17'0 0.7
2018-May-17 21:30N 33°45' W 118°16'0 0.0
2018-May-17 21:00N 33°45' W 118°16'0 0.0
2018-May-17 20:30N 33°45' W 118°16'0 0.0
2018-May-17 20:00N 33°45' W 118°16'0 0.0
2018-May-17 19:30N 33°45' W 118°16'510.0
2018-May-17 19:01N 33°40' W 118°17'4 1.4
2018-May-17 16:26N 33°36' W 118°16'716.6
2018-May-17 16:01N 33°43' W 118°16'1 2.9
2018-May-17 15:30N 33°45' W 118°16'0 0.0
2018-May-17 15:00N 33°45' W 118°16'0 0.0
2018-May-17 14:31N 33°45' W 118°16'0 0.0
2018-May-17 14:00N 33°45' W 118°16'0 0.0
2018-May-17 13:30N 33°45' W 118°16'0 0.0
2018-May-17 13:00N 33°45' W 118°16'0 0.0
2018-May-16 21:05N 33°45' W 118°16'0 0.0
2018-May-16 21:01N 33°45' W 118°16'0 0.1
2018-May-16 20:30N 33°45' W 118°16'2 3.4
2018-May-16 20:00N 33°43' W 118°16'4 1.4
2018-May-16 17:30N 33°40' W 118°17'510.6
2018-May-16 17:00N 33°45' W 118°16'0 0.0
2018-May-16 16:30N 33°45' W 118°16'0 0.0
2018-May-16 16:00N 33°45' W 118°16'0 0.0
2018-May-16 15:30N 33°45' W 118°16'0 0.0
2018-May-16 15:01N 33°45' W 118°16'0 0.0
2018-May-16 14:30N 33°45' W 118°16'0 0.0
2018-May-16 14:00N 33°45' W 118°16'0 0.0
2018-May-16 13:31N 33°45' W 118°16'0 0.0
2018-May-16 13:00N 33°45' W 118°16'0 0.0
2018-May-16 03:01N 33°45' W 118°16'0 0.0
2018-May-16 02:59N 33°45' W 118°16'0 0.0
2018-May-16 02:30N 33°45' W 118°16'0 0.0
2018-May-16 02:00N 33°45' W 118°16'2 3.5
2018-May-16 01:31N 33°43' W 118°16'4 1.3
2018-May-15 22:25N 33°40' W 118°18'512.7
2018-May-15 22:00N 33°45' W 118°17'0 0.8
2018-May-15 21:30N 33°45' W 118°16'0 0.0
2018-May-15 21:00N 33°45' W 118°16'0 0.0
2018-May-15 20:30N 33°45' W 118°16'0 0.0
2018-May-15 20:00N 33°45' W 118°16'0 0.0
2018-May-15 19:30N 33°45' W 118°16'5 9.3
2018-May-15 19:00N 33°40' W 118°17'4 1.6
2018-May-15 16:22N 33°36' W 118°16'720.2
2018-May-15 16:01N 33°43' W 118°16'2 3.1
2018-May-15 15:31N 33°45' W 118°16'0 0.1
2018-May-15 15:00N 33°45' W 118°16'0 0.1
2018-May-15 14:31N 33°45' W 118°16'0 0.0
2018-May-15 14:01N 33°45' W 118°16'0 0.0
2018-May-15 13:30N 33°45' W 118°16'0 0.0
2018-May-15 13:01N 33°45' W 118°16'0 0.0
2018-May-14 23:11N 33°45' W 118°16'1 6.8
2018-May-14 23:01N 33°44' W 118°16'7 3.4
2018-May-14 21:06N 33°37' W 118°16'224.8
2018-May-14 21:00N 33°39' W 118°16'6 1.2
2018-May-14 16:22N 33°45' W 118°16'0 0.2
2018-May-14 16:00N 33°45' W 118°16'0 0.0
2018-May-14 15:00N 33°45' W 118°16'0 0.0
2018-May-14 14:30N 33°45' W 118°16'0 0.1
2018-May-14 14:00N 33°45' W 118°16'0 0.1
2018-May-14 13:30N 33°45' W 118°16'0 0.0
2018-May-14 03:46N 33°45' W 118°16'0 0.0
2018-May-14 03:30N 33°45' W 118°16'0 0.2
2018-May-14 03:00N 33°45' W 118°16'0 0.0
2018-May-14 02:30N 33°45' W 118°16'1 2.5
2018-May-14 02:00N 33°44' W 118°16'6 3.3
2018-May-14 00:07N 33°38' W 118°19'325.9
2018-May-14 00:00N 33°40' W 118°17'5 9.8
2018-May-13 23:30N 33°45' W 118°16'0 0.0
2018-May-13 23:00N 33°45' W 118°16'1 2.5
2018-May-13 22:30N 33°44' W 118°16'7 2.7
2018-May-13 20:01N 33°37' W 118°19'126.1
2018-May-13 19:58N 33°38' W 118°18'714.0
2018-May-13 19:30N 33°45' W 118°17'0 0.3
2018-May-13 19:00N 33°45' W 118°16'0 0.2
2018-May-13 18:30N 33°45' W 118°16'0 0.1
2018-May-13 18:00N 33°45' W 118°16'0 0.1
2018-May-13 17:30N 33°45' W 118°16'0 0.1
2018-May-13 17:00N 33°45' W 118°16'0 0.1
2018-May-13 16:30N 33°45' W 118°16'0 0.1
2018-May-13 16:00N 33°45' W 118°16'0 0.0
2018-May-13 15:30N 33°45' W 118°16'0 0.1
2018-May-13 15:00N 33°45' W 118°16'0 0.0
2018-May-13 14:30N 33°45' W 118°16'0 0.1
2018-May-13 14:01N 33°45' W 118°16'0 0.0
2018-May-13 13:30N 33°45' W 118°16'0 0.0
2018-May-12 20:53N 33°45' W 118°16'0 0.0
2018-May-12 20:30N 33°45' W 118°16'0 0.2
2018-May-12 20:00N 33°45' W 118°16'0 0.2
2018-May-12 19:30N 33°45' W 118°16'713.9
2018-May-12 19:00N 33°38' W 118°15'3 1.7
2018-May-12 17:08N 33°35' W 118°17'324.7
2018-May-12 17:01N 33°38' W 118°16'713.1
2018-May-12 16:29N 33°45' W 118°16'0 0.0
2018-May-12 16:00N 33°45' W 118°16'0 0.2
2018-May-12 15:30N 33°45' W 118°16'0 0.1
2018-May-12 15:00N 33°45' W 118°16'0 0.0
2018-May-12 14:30N 33°45' W 118°16'0 0.0
2018-May-12 14:00N 33°45' W 118°16'0 0.0
2018-May-12 07:39N 33°45' W 118°16'0 0.4
2018-May-12 07:31N 33°45' W 118°16'0 0.2
2018-May-12 07:00N 33°45' W 118°16'0 0.0
2018-May-12 06:31N 33°45' W 118°16'3 5.4
2018-May-12 06:00N 33°43' W 118°15'3 0.8
2018-May-12 02:51N 33°40' W 118°16'411.6
2018-May-12 02:30N 33°44' W 118°17'1 1.8
2018-May-12 02:00N 33°45' W 118°16'2 4.7
2018-May-12 01:31N 33°43' W 118°15'8 3.4
2018-May-11 23:14N 33°35' W 118°16'624.4
2018-May-11 23:01N 33°41' W 118°15'4 8.6
2018-May-11 22:30N 33°45' W 118°16'0 0.0
2018-May-11 22:00N 33°45' W 118°16'0 0.0
2018-May-11 21:30N 33°45' W 118°16'0 0.0
2018-May-11 21:01N 33°45' W 118°16'0 0.0
2018-May-11 20:31N 33°45' W 118°16'5 9.2
2018-May-11 20:01N 33°40' W 118°17'4 1.6
2018-May-11 17:35N 33°37' W 118°20'225.6
2018-May-11 17:30N 33°39' W 118°18'612.8
2018-May-11 17:00N 33°45' W 118°16'0 0.0
2018-May-11 16:30N 33°45' W 118°16'0 0.2
2018-May-11 16:00N 33°45' W 118°16'0 0.1
2018-May-11 15:30N 33°45' W 118°16'0 0.0
2018-May-11 15:00N 33°45' W 118°16'0 0.1
2018-May-11 14:30N 33°45' W 118°16'0 0.1
2018-May-11 14:00N 33°45' W 118°16'0 0.1
2018-May-11 13:30N 33°45' W 118°16'0 0.1
2018-May-11 13:00N 33°45' W 118°16'0 0.1
2018-May-11 12:30N 33°45' W 118°16'  

Dump ship's entire track history